createdAt,value
2018-08-23T00:00:16.636Z,13.60
2018-08-23T00:02:45.728Z,14.87
2018-08-23T00:05:14.773Z,12.83
2018-08-23T00:07:43.845Z,14.07
2018-08-23T00:12:48.709Z,14.60
2018-08-23T00:15:17.775Z,14.53
2018-08-23T00:17:46.851Z,14.93
2018-08-23T00:20:15.886Z,15.23
2018-08-23T00:22:45.895Z,15.57
2018-08-23T00:25:14.953Z,14.57
2018-08-23T00:27:44.046Z,15.03
2018-08-23T00:30:13.117Z,14.50
2018-08-23T00:32:42.186Z,16.40
2018-08-23T00:35:11.244Z,14.87
2018-08-23T00:37:40.314Z,15.50
2018-08-23T00:40:09.463Z,14.17
2018-08-23T00:42:38.514Z,13.83
2018-08-23T00:50:19.126Z,15.85
2018-08-23T00:52:48.193Z,15.47
2018-08-23T00:55:17.317Z,13.93
2018-08-23T01:00:22.176Z,15.88
2018-08-23T01:02:51.242Z,16.02
2018-08-23T01:05:20.311Z,14.90
2018-08-23T01:07:49.377Z,15.97
2018-08-23T01:10:18.447Z,15.70
2018-08-23T01:12:47.497Z,14.87
2018-08-23T01:15:16.645Z,15.97
2018-08-23T01:20:21.505Z,16.17
2018-08-23T01:25:26.376Z,15.40
2018-08-23T01:27:57.387Z,16.62
2018-08-23T01:30:26.461Z,14.77
2018-08-23T01:32:55.631Z,14.53
2018-08-23T01:35:24.685Z,15.93
2018-08-23T01:37:53.747Z,13.57
2018-08-23T01:40:22.810Z,14.70
2018-08-23T01:42:51.881Z,15.82
2018-08-23T01:45:20.925Z,13.57
2018-08-23T01:47:51.006Z,15.47
2018-08-23T01:50:20.070Z,13.40
2018-08-23T01:52:49.172Z,13.23
2018-08-23T01:55:18.218Z,16.33
2018-08-23T01:57:49.197Z,16.42
2018-08-23T02:00:18.258Z,15.20
2018-08-23T02:05:26.538Z,16.87
2018-08-23T02:07:55.723Z,16.97
2018-08-23T02:14:08.894Z,15.43
2018-08-23T02:19:13.651Z,16.00
2018-08-23T02:21:42.728Z,16.40
2018-08-23T02:24:11.782Z,14.93
2018-08-23T02:26:40.845Z,15.20
2018-08-23T02:29:11.161Z,15.93
2018-08-23T02:31:41.175Z,15.80
2018-08-23T02:34:10.233Z,14.63
2018-08-23T02:36:40.306Z,14.87
2018-08-23T02:39:09.383Z,14.53
2018-08-23T02:41:38.414Z,13.27
2018-08-23T02:46:43.161Z,13.93
2018-08-23T02:54:23.880Z,13.70
2018-08-23T02:56:52.961Z,13.20
2018-08-23T02:59:22.016Z,13.37
2018-08-23T03:01:51.086Z,12.60
2018-08-23T03:04:20.166Z,12.50
2018-08-23T03:09:25.019Z,12.40
2018-08-23T03:11:54.068Z,12.70
2018-08-23T03:14:23.129Z,11.90
2018-08-23T03:16:53.267Z,11.90
2018-08-23T03:19:22.317Z,12.43
2018-08-23T03:21:51.387Z,12.00
2018-08-23T03:24:20.444Z,11.90
2018-08-23T03:29:25.304Z,12.77
2018-08-23T03:31:54.370Z,11.67
2018-08-23T03:34:23.426Z,11.60
2018-08-23T03:36:52.474Z,12.00
2018-08-23T03:39:21.546Z,11.40
2018-08-23T03:41:50.614Z,11.90
2018-08-23T03:44:19.677Z,11.23
2018-08-23T03:46:49.687Z,12.18
2018-08-23T03:49:18.749Z,11.68
2018-08-23T03:51:47.802Z,11.33
2018-08-23T03:56:52.739Z,11.30
2018-08-23T04:01:57.508Z,11.15
2018-08-23T04:04:26.562Z,10.32
2018-08-23T04:09:31.358Z,10.90
2018-08-23T04:17:12.088Z,11.27
2018-08-23T04:19:41.172Z,10.50
2018-08-23T04:22:10.289Z,10.57
2018-08-23T04:24:39.331Z,11.13
2018-08-23T04:27:08.399Z,11.23
2018-08-23T04:29:37.461Z,10.17
2018-08-23T04:32:06.509Z,11.18
2018-08-23T04:34:35.567Z,11.30
2018-08-23T04:37:04.625Z,11.40
2018-08-23T04:39:33.673Z,10.40
2018-08-23T04:42:03.081Z,10.93
2018-08-23T04:44:32.147Z,10.73
2018-08-23T04:47:01.213Z,11.57
2018-08-23T04:52:07.926Z,10.57
2018-08-23T04:54:37.015Z,11.20
2018-08-23T04:59:43.834Z,11.30
2018-08-23T05:02:13.871Z,11.90
2018-08-23T05:04:43.129Z,12.67
2018-08-23T05:07:12.809Z,11.53
2018-08-23T05:09:41.969Z,9.40
2018-08-23T05:12:11.024Z,10.47
2018-08-23T05:14:40.069Z,10.07
2018-08-23T05:19:44.921Z,10.40
2018-08-23T05:22:13.973Z,10.90
2018-08-23T05:24:43.053Z,12.60
2018-08-23T05:27:12.098Z,11.20
2018-08-23T05:29:41.212Z,10.90
2018-08-23T05:32:10.273Z,10.23
2018-08-23T05:34:39.327Z,9.50
2018-08-23T05:37:08.408Z,11.35
2018-08-23T05:39:37.484Z,13.40
2018-08-23T05:44:42.278Z,10.85
2018-08-23T05:47:11.346Z,10.30
2018-08-23T05:49:40.402Z,10.87
2018-08-23T05:52:09.441Z,8.90
2018-08-23T05:54:38.505Z,10.93
2018-08-23T05:57:07.549Z,9.73
2018-08-23T05:59:36.593Z,9.87
2018-08-23T06:02:05.665Z,9.57
2018-08-23T06:04:34.745Z,9.90
2018-08-23T06:07:03.793Z,9.57
2018-08-23T06:09:33.856Z,8.70
2018-08-23T06:12:02.906Z,9.33
2018-08-23T06:14:31.945Z,8.50
2018-08-23T06:17:00.998Z,9.30
2018-08-23T06:19:31.996Z,8.43
2018-08-23T06:22:01.052Z,8.97
2018-08-23T06:24:30.373Z,8.80
2018-08-23T06:26:59.434Z,9.60
2018-08-23T06:29:28.514Z,8.13
2018-08-23T06:31:58.781Z,7.87
2018-08-23T06:34:27.841Z,8.40
2018-08-23T06:39:34.637Z,7.72
2018-08-23T06:42:03.727Z,7.30
2018-08-23T06:44:33.804Z,7.13
2018-08-23T06:47:02.788Z,6.60
2018-08-23T06:49:31.843Z,6.50
2018-08-23T06:52:00.943Z,6.50
2018-08-23T06:54:29.949Z,7.17
2018-08-23T06:56:59.023Z,7.07
2018-08-23T06:59:28.077Z,7.20
2018-08-23T07:02:01.113Z,6.20
2018-08-23T07:04:30.319Z,7.27
2018-08-23T07:06:59.373Z,7.13
2018-08-23T07:09:28.409Z,6.67
2018-08-23T07:11:57.597Z,6.60
2018-08-23T07:14:26.631Z,7.30
2018-08-23T07:16:55.676Z,7.10
2018-08-23T07:19:25.614Z,6.60
2018-08-23T07:24:30.493Z,7.62
2018-08-23T07:29:36.395Z,6.15
2018-08-23T07:32:05.412Z,6.90
2018-08-23T07:34:34.833Z,6.50
2018-08-23T07:39:39.811Z,6.80
2018-08-23T07:44:45.797Z,6.60
2018-08-23T07:49:50.695Z,6.53
2018-08-23T07:52:19.873Z,6.68
2018-08-23T07:54:48.923Z,6.67
2018-08-23T07:57:18.009Z,6.20
2018-08-23T07:59:47.055Z,6.10
2018-08-23T08:02:16.135Z,6.63
2018-08-23T08:04:45.183Z,10.43
2018-08-23T08:07:15.180Z,6.33
2018-08-23T08:12:20.071Z,6.95
2018-08-23T08:14:51.071Z,6.90
2018-08-23T08:19:55.962Z,7.30
2018-08-23T08:22:25.148Z,7.10
2018-08-23T08:24:55.137Z,6.70
2018-08-23T08:27:24.182Z,7.20
2018-08-23T08:29:53.237Z,7.03
2018-08-23T08:32:23.254Z,10.30
2018-08-23T08:34:52.333Z,6.70
2018-08-23T08:37:22.372Z,6.73
2018-08-23T08:42:28.273Z,7.07
2018-08-23T08:44:57.329Z,6.57
2018-08-23T08:47:26.810Z,7.10
2018-08-23T08:49:55.862Z,7.37
2018-08-23T08:52:25.074Z,11.00
2018-08-23T08:54:54.505Z,7.00
2018-08-23T08:57:24.281Z,7.57
2018-08-23T08:59:55.328Z,6.40
2018-08-23T09:02:24.381Z,7.20
2018-08-23T09:07:29.225Z,6.55
2018-08-23T09:09:58.262Z,7.00
2018-08-23T09:12:30.395Z,5.90
2018-08-23T09:17:35.426Z,6.50
2018-08-23T09:20:04.499Z,5.95
2018-08-23T09:22:33.558Z,6.27
2018-08-23T09:25:02.977Z,6.37
2018-08-23T09:27:32.005Z,6.78
2018-08-23T09:30:02.027Z,6.40
2018-08-23T09:32:31.445Z,5.67
2018-08-23T09:35:00.500Z,6.83
2018-08-23T09:40:05.413Z,6.28
2018-08-23T09:42:38.995Z,6.40
2018-08-23T09:45:08.058Z,6.87
2018-08-23T09:47:37.094Z,7.60
2018-08-23T09:50:06.242Z,6.37
2018-08-23T09:52:35.229Z,6.63
2018-08-23T09:55:04.310Z,6.33
2018-08-23T09:57:33.369Z,6.43
2018-08-23T10:00:02.422Z,6.60
2018-08-23T10:05:30.220Z,7.55
2018-08-23T10:07:59.266Z,6.37
2018-08-23T10:20:59.012Z,6.70
2018-08-23T10:23:28.066Z,6.90
2018-08-23T10:25:57.168Z,7.47
2018-08-23T10:28:27.230Z,7.23
2018-08-23T10:30:56.333Z,6.50
2018-08-23T10:33:25.372Z,7.07
2018-08-23T10:35:54.608Z,7.47
2018-08-23T10:38:23.656Z,6.67
2018-08-23T10:40:52.722Z,7.07
2018-08-23T10:43:21.963Z,7.30
2018-08-23T10:45:51.019Z,6.90
2018-08-23T10:48:20.085Z,9.30
2018-08-23T10:50:49.272Z,6.60
2018-08-23T10:53:18.239Z,7.30
2018-08-23T10:55:48.274Z,7.77
2018-08-23T10:58:17.329Z,7.20
2018-08-23T11:00:46.405Z,7.53
2018-08-23T11:03:15.470Z,7.53
2018-08-23T11:05:45.499Z,7.20
2018-08-23T11:13:45.558Z,6.82
2018-08-23T11:16:14.955Z,7.97
2018-08-23T11:21:20.123Z,7.43
2018-08-23T11:23:49.166Z,7.18
2018-08-23T11:26:18.231Z,7.80
2018-08-23T11:28:47.558Z,8.15
2018-08-23T11:31:16.622Z,7.37
2018-08-23T11:33:45.669Z,7.33
2018-08-23T11:36:14.903Z,7.53
2018-08-23T11:38:43.976Z,7.17
2018-08-23T11:41:13.063Z,7.83
2018-08-23T11:43:42.459Z,8.00
2018-08-23T11:48:47.721Z,8.27
2018-08-23T11:53:52.957Z,7.80
2018-08-23T11:56:22.013Z,7.77
2018-08-23T11:58:51.060Z,8.47
2018-08-23T12:03:55.816Z,6.82
2018-08-23T12:06:25.117Z,8.30
2018-08-23T12:08:54.158Z,7.17
2018-08-23T12:11:23.210Z,6.77
2018-08-23T12:16:27.982Z,7.60
2018-08-23T12:18:57.296Z,7.87
2018-08-23T12:21:26.350Z,8.23
2018-08-23T12:23:55.407Z,7.63
2018-08-23T12:26:24.789Z,7.40
2018-08-23T12:28:53.841Z,7.57
2018-08-23T12:31:22.905Z,7.60
2018-08-23T12:33:52.989Z,8.43
2018-08-23T12:44:34.308Z,7.87
2018-08-23T12:47:03.628Z,7.77
2018-08-23T12:52:08.625Z,8.10
2018-08-23T12:54:41.469Z,8.25
2018-08-23T12:57:10.540Z,8.30
2018-08-23T12:59:39.773Z,7.80
2018-08-23T13:02:08.882Z,8.43
2018-08-23T13:04:37.882Z,7.53
2018-08-23T13:07:07.161Z,8.40
2018-08-23T13:09:36.232Z,8.40
2018-08-23T13:12:05.277Z,7.93
2018-08-23T13:17:11.301Z,8.30
2018-08-23T13:19:40.356Z,8.50
2018-08-23T13:22:09.389Z,8.73
2018-08-23T13:24:39.432Z,9.13
2018-08-23T13:27:08.479Z,8.40
2018-08-23T13:29:37.561Z,9.13
2018-08-23T13:32:06.625Z,8.07
2018-08-23T13:34:35.677Z,7.50
2018-08-23T13:37:04.778Z,8.57
2018-08-23T13:39:33.791Z,9.18
2018-08-23T13:42:02.878Z,7.90
2018-08-23T13:47:07.695Z,8.07
2018-08-23T13:49:36.771Z,8.53
2018-08-23T13:52:06.781Z,7.07
2018-08-23T13:54:39.994Z,7.37
2018-08-23T13:57:09.077Z,8.03
2018-08-23T13:59:38.138Z,7.93
2018-08-23T14:02:08.342Z,8.10
2018-08-23T14:04:37.424Z,7.82
2018-08-23T14:09:42.269Z,7.97
2018-08-23T14:14:47.134Z,7.75
2018-08-23T14:17:17.114Z,7.60
2018-08-23T14:19:46.383Z,7.90
2018-08-23T14:22:16.449Z,7.70
2018-08-23T14:24:45.510Z,7.78
2018-08-23T14:27:14.653Z,7.00
2018-08-23T14:29:44.567Z,8.63
2018-08-23T14:32:13.621Z,6.90
2018-08-23T14:34:42.672Z,8.20
2018-08-23T14:37:11.734Z,7.50
2018-08-23T14:39:40.762Z,8.47
2018-08-23T14:42:09.813Z,7.70
2018-08-23T14:44:39.028Z,8.27
2018-08-23T14:50:02.973Z,7.80
2018-08-23T14:52:32.040Z,8.63
2018-08-23T14:55:01.336Z,7.90
2018-08-23T15:00:07.598Z,7.47
2018-08-23T15:02:36.634Z,7.80
2018-08-23T15:05:05.694Z,8.07
2018-08-23T15:07:34.767Z,9.00
2018-08-23T15:10:03.817Z,10.43
2018-08-23T15:12:33.851Z,8.73
2018-08-23T15:15:02.991Z,7.77
2018-08-23T15:20:07.772Z,7.93
2018-08-23T15:22:37.868Z,8.90
2018-08-23T15:27:42.995Z,7.78
2018-08-23T15:30:12.017Z,8.00
2018-08-23T15:32:41.065Z,8.50
2018-08-23T15:35:10.123Z,7.63
2018-08-23T15:37:39.173Z,7.83
2018-08-23T15:40:09.191Z,8.57
2018-08-23T15:42:38.498Z,7.10
2018-08-23T15:47:43.660Z,7.87
2018-08-23T15:50:12.718Z,7.40
2018-08-23T15:52:41.769Z,8.33
2018-08-23T15:55:10.968Z,7.23
2018-08-23T15:57:39.909Z,8.90
2018-08-23T16:02:44.746Z,7.50
2018-08-23T16:07:50.585Z,8.13
2018-08-23T16:10:20.708Z,7.70
2018-08-23T16:12:49.728Z,7.30
2018-08-23T16:15:18.771Z,6.83
2018-08-23T16:20:48.618Z,7.30
2018-08-23T16:23:17.764Z,7.00
2018-08-23T16:25:46.812Z,6.90
2018-08-23T16:28:15.898Z,7.10
2018-08-23T16:30:44.949Z,7.40
2018-08-23T16:33:14.938Z,5.73
2018-08-23T16:35:43.977Z,6.57
2018-08-23T16:38:13.035Z,7.20
2018-08-23T16:40:42.083Z,6.47
2018-08-23T16:43:11.137Z,6.40
2018-08-23T16:45:40.173Z,6.80
2018-08-23T16:48:09.222Z,6.57
2018-08-23T16:53:14.167Z,6.68
2018-08-23T16:55:43.174Z,6.60
2018-08-23T17:00:48.063Z,6.18
2018-08-23T17:03:17.124Z,5.85
2018-08-23T17:05:46.177Z,6.07
2018-08-23T17:08:15.243Z,7.05
2018-08-23T17:10:44.280Z,5.60
2018-08-23T17:13:13.328Z,8.17
2018-08-23T17:15:43.348Z,5.65
2018-08-23T17:18:12.473Z,4.70
2018-08-23T17:20:41.459Z,4.90
2018-08-23T17:25:46.330Z,4.55
2018-08-23T17:28:15.366Z,13.02
2018-08-23T17:30:44.470Z,13.00
2018-08-23T17:33:13.493Z,4.57
2018-08-23T17:35:44.536Z,4.47
2018-08-23T17:38:14.551Z,3.90
2018-08-23T17:40:45.709Z,4.37
2018-08-23T17:43:14.824Z,4.00
2018-08-23T17:48:19.691Z,4.50
2018-08-23T17:50:48.893Z,5.13
2018-08-23T17:53:17.959Z,5.60
2018-08-23T17:55:47.091Z,4.97
2018-08-23T18:00:51.822Z,4.15
2018-08-23T18:03:20.930Z,4.53
2018-08-23T18:05:50.920Z,7.27
2018-08-23T18:08:20.806Z,4.13
2018-08-23T18:10:49.853Z,4.53
2018-08-23T18:13:18.922Z,4.85
2018-08-23T18:15:47.969Z,4.77
2018-08-23T18:18:17.057Z,4.60
2018-08-23T18:23:21.925Z,5.32
2018-08-23T18:25:50.989Z,5.03
2018-08-23T18:28:20.033Z,3.97
2018-08-23T18:30:49.084Z,4.10
2018-08-23T18:33:18.168Z,3.80
2018-08-23T18:35:47.203Z,4.37
2018-08-23T18:40:52.054Z,4.80
2018-08-23T18:43:22.069Z,4.10
2018-08-23T18:48:26.921Z,4.50
2018-08-23T18:53:31.788Z,4.70
2018-08-23T18:56:00.849Z,4.32
2018-08-23T18:58:29.936Z,4.23
2018-08-23T19:00:58.979Z,4.33
2018-08-23T19:03:28.031Z,4.20
2018-08-23T19:08:32.830Z,4.80
2018-08-23T19:11:01.894Z,6.20
2018-08-23T19:13:31.996Z,4.20
2018-08-23T19:16:01.132Z,4.43
2018-08-23T19:18:30.183Z,4.03
2018-08-23T19:20:59.229Z,4.17
2018-08-23T19:23:28.281Z,4.10
2018-08-23T19:25:57.353Z,4.37
2018-08-23T19:28:26.378Z,4.80
2018-08-23T19:30:55.423Z,4.43
2018-08-23T19:33:25.462Z,4.20
2018-08-23T19:38:30.344Z,4.35
2018-08-23T19:40:59.380Z,4.47
2018-08-23T19:43:28.438Z,4.00
2018-08-23T19:45:57.477Z,5.50
2018-08-23T19:48:26.525Z,5.47
2018-08-23T19:50:55.614Z,4.83
2018-08-23T19:53:24.679Z,5.03
2018-08-23T19:55:54.722Z,6.93
2018-08-23T19:58:23.815Z,4.00
2018-08-23T20:00:52.875Z,4.73
2018-08-23T20:03:21.904Z,4.53
2018-08-23T20:05:50.962Z,5.62
2018-08-23T20:08:20.028Z,5.60
2018-08-23T20:10:49.116Z,5.45
2018-08-23T20:13:18.157Z,6.60
2018-08-23T20:15:47.219Z,5.00
2018-08-23T20:18:16.262Z,5.00
2018-08-23T20:20:45.309Z,6.10
2018-08-23T20:25:50.168Z,5.50
2018-08-23T20:28:19.294Z,5.62
2018-08-23T20:30:48.334Z,4.33
2018-08-23T20:33:18.353Z,4.60
2018-08-23T20:35:47.410Z,4.10
2018-08-23T20:38:16.457Z,4.80
2018-08-23T20:40:45.493Z,5.37
2018-08-23T20:43:14.548Z,4.80
2018-08-23T20:45:43.598Z,5.13
2018-08-23T20:48:12.691Z,4.43
2018-08-23T20:50:41.732Z,4.80
2018-08-23T20:53:10.779Z,6.17
2018-08-23T20:55:39.856Z,4.97
2018-08-23T20:58:08.921Z,5.10
2018-08-23T21:00:37.941Z,5.53
2018-08-23T21:03:07.002Z,5.40
2018-08-23T21:05:37.054Z,5.30
2018-08-23T21:13:17.609Z,6.28
2018-08-23T21:15:46.641Z,5.00
2018-08-23T21:18:15.683Z,6.37
2018-08-23T21:20:48.749Z,5.57
2018-08-23T21:23:17.838Z,6.20
2018-08-23T21:25:46.882Z,4.93
2018-08-23T21:28:15.965Z,5.20
2018-08-23T21:30:45.018Z,5.27
2018-08-23T21:33:14.068Z,5.50
2018-08-23T21:38:18.928Z,5.60
2018-08-23T21:40:47.957Z,5.00
2018-08-23T21:43:17.009Z,5.60
2018-08-23T21:45:46.054Z,5.00
2018-08-23T21:48:15.117Z,5.23
2018-08-23T21:50:45.130Z,6.43
2018-08-23T21:53:14.167Z,5.20
2018-08-23T21:55:44.138Z,4.87
2018-08-23T21:58:13.187Z,5.07
2018-08-23T22:00:42.291Z,5.13
2018-08-23T22:03:11.333Z,5.50
2018-08-23T22:05:40.382Z,4.90
2018-08-23T22:08:09.441Z,5.47
2018-08-23T22:10:38.489Z,5.50
2018-08-23T22:13:07.595Z,5.17
2018-08-23T22:15:36.669Z,5.57
2018-08-23T22:18:05.726Z,6.53
2018-08-23T22:20:34.779Z,7.27
2018-08-23T22:23:04.852Z,6.23
2018-08-23T22:28:09.653Z,7.80
2018-08-23T22:30:38.693Z,5.97
2018-08-23T22:33:07.795Z,5.90
2018-08-23T22:35:37.824Z,5.23
2018-08-23T22:38:06.860Z,5.00
2018-08-23T22:40:35.905Z,6.13
2018-08-23T22:43:04.974Z,5.90
2018-08-23T22:45:34.043Z,6.03
2018-08-23T22:50:38.891Z,6.20
2018-08-23T22:53:07.934Z,6.30
2018-08-23T22:55:36.993Z,5.87
2018-08-23T22:58:11.114Z,7.57
2018-08-23T23:03:20.998Z,6.10
2018-08-23T23:05:53.644Z,5.83
2018-08-23T23:08:28.137Z,5.60
2018-08-23T23:11:01.527Z,5.70
2018-08-23T23:13:34.953Z,6.20
2018-08-23T23:18:44.933Z,5.90
2018-08-23T23:21:18.796Z,5.30
2018-08-23T23:23:52.650Z,5.47
2018-08-23T23:26:26.358Z,4.60
2018-08-23T23:29:00.001Z,4.73
2018-08-23T23:31:33.265Z,4.40
2018-08-23T23:34:08.679Z,4.70
2018-08-23T23:36:41.973Z,4.63
2018-08-23T23:41:51.895Z,4.30
2018-08-23T23:44:24.996Z,4.50
2018-08-23T23:46:58.217Z,3.43
2018-08-23T23:49:30.738Z,4.37
2018-08-23T23:52:03.673Z,4.23
2018-08-23T23:54:36.590Z,4.70
2018-08-23T23:57:10.012Z,4.30
2018-08-23T23:59:44.064Z,4.80
